Time;durP1;ratioP1;P1;durP2;ratioP2;P2;SDS_P1;SDS_P2;PMS_P1;PMS_P2;Temp;Humidity;BMP_temperature;BMP_pressure;BME280_temperature;BME280_humidity;BME280_pressure;Samples;Min_cycle;Max_cycle;Signal;HPM_P1;HPM_P2
2024/01/08 00:01:36;;;;;;;;;;;;;;;8.41;49.77;101612.59;4966870;27;97823;-66
2024/01/08 00:04:03;;;;;;;;;;;;;;;8.40;49.38;101619.00;4965857;27;120007;-63
2024/01/08 00:06:29;;;;;;;;;;;;;;;8.38;49.04;101611.19;4962493;27;98633;-63
2024/01/08 00:08:56;;;;;;;;;;;;;;;8.36;49.09;101619.44;4970154;27;98520;-66
2024/01/08 00:11:22;;;;;;;;;;;;;;;8.36;49.02;101623.97;4946491;27;99077;-66
2024/01/08 00:13:48;;;;;;;;;;;;;;;8.33;49.50;101619.06;4960826;27;103434;-64
2024/01/08 00:16:14;;;;;;;;;;;;;;;8.33;49.24;101625.28;4959049;27;98056;-63
2024/01/08 00:18:40;;;;;;;;;;;;;;;8.31;49.37;101624.66;4942808;27;98211;-67
2024/01/08 00:21:06;;;;;;;;;;;;;;;8.30;48.94;101624.91;4963773;27;105534;-66
2024/01/08 00:23:36;;;;;;;;;;;;;;;8.29;49.33;101632.13;4948112;27;98350;-66
2024/01/08 00:26:02;;;;;;;;;;;;;;;8.28;49.79;101638.53;4973709;27;105891;-64
2024/01/08 00:28:28;;;;;;;;;;;;;;;8.27;49.77;101631.53;4942344;27;98032;-66
2024/01/08 00:30:54;;;;;;;;;;;;;;;8.27;49.64;101636.09;4961202;27;98560;-64
2024/01/08 00:33:20;;;;;;;;;;;;;;;8.25;49.40;101644.38;4940617;28;102580;-66
2024/01/08 00:35:46;;;;;;;;;;;;;;;8.24;49.38;101644.59;4945661;27;127432;-63
2024/01/08 00:38:12;;;;;;;;;;;;;;;8.22;49.10;101650.19;4943580;28;98747;-66
2024/01/08 00:40:38;;;;;;;;;;;;;;;8.22;49.45;101647.50;4947463;27;117663;-66
2024/01/08 00:43:04;;;;;;;;;;;;;;;8.21;49.40;101650.41;4949126;27;98144;-66
2024/01/08 00:45:30;;;;;;;;;;;;;;;8.21;48.86;101650.41;4946172;28;98251;-66
2024/01/08 00:47:56;;;;;;;;;;;;;;;8.20;49.37;101659.50;4948351;27;106569;-63
2024/01/08 00:50:23;;;;;;;;;;;;;;;8.18;49.30;101649.00;4957178;27;98174;-63
2024/01/08 00:52:49;;;;;;;;;;;;;;;8.18;49.34;101650.88;4948934;27;98155;-63
2024/01/08 00:55:15;;;;;;;;;;;;;;;8.18;49.56;101657.06;4973006;27;98133;-63
2024/01/08 00:57:41;;;;;;;;;;;;;;;8.17;48.79;101660.75;4945669;27;98465;-66
2024/01/08 01:00:08;;;;;;;;;;;;;;;8.17;48.91;101662.63;4943919;27;116929;-64
2024/01/08 01:02:35;;;;;;;;;;;;;;;8.16;49.28;101664.50;4948888;27;98143;-66
2024/01/08 01:05:01;;;;;;;;;;;;;;;8.16;49.13;101672.56;4955248;27;98238;-67
2024/01/08 01:07:27;;;;;;;;;;;;;;;8.15;49.29;101676.28;4944304;28;109750;-64
2024/01/08 01:09:54;;;;;;;;;;;;;;;8.14;49.01;101674.66;4946022;27;99160;-66
2024/01/08 01:12:20;;;;;;;;;;;;;;;8.13;49.19;101673.00;4946830;27;98153;-66
2024/01/08 01:14:46;;;;;;;;;;;;;;;8.11;49.12;101673.22;4977046;27;104328;-64
2024/01/08 01:17:12;;;;;;;;;;;;;;;8.10;49.40;101673.47;4946244;27;98830;-66
2024/01/08 01:19:38;;;;;;;;;;;;;;;8.10;48.90;101676.16;4943716;28;117892;-66
2024/01/08 01:22:04;;;;;;;;;;;;;;;8.08;49.29;101684.41;4946333;27;98111;-66
2024/01/08 01:24:30;;;;;;;;;;;;;;;8.07;49.55;101682.78;4945199;27;119685;-63
2024/01/08 01:26:56;;;;;;;;;;;;;;;8.06;48.98;101683.00;4949421;27;98091;-66
2024/01/08 01:29:21;;;;;;;;;;;;;;;8.04;48.80;101683.19;4946726;27;98959;-66
2024/01/08 01:31:48;;;;;;;;;;;;;;;8.03;49.23;101686.94;4958817;28;127429;-64
2024/01/08 01:34:15;;;;;;;;;;;;;;;8.03;49.30;101695.00;4963807;27;99555;-66
2024/01/08 01:36:41;;;;;;;;;;;;;;;8.02;49.28;101703.28;4945311;27;99436;-67
2024/01/08 01:39:07;;;;;;;;;;;;;;;8.00;48.84;101697.28;4944507;27;98159;-66
2024/01/08 01:41:33;;;;;;;;;;;;;;;7.98;49.67;101696.72;4940742;28;98038;-66
2024/01/08 01:43:59;;;;;;;;;;;;;;;7.97;49.13;101703.91;4946142;27;110815;-66
2024/01/08 01:46:35;;;;;;;;;;;;;;;7.96;49.32;101696.09;4959288;27;113938;-64
2024/01/08 01:49:01;;;;;;;;;;;;;;;7.94;49.13;101695.47;4958342;27;109972;-64
2024/01/08 01:51:27;;;;;;;;;;;;;;;7.93;49.39;101696.53;4946065;28;98111;-66
2024/01/08 01:53:53;;;;;;;;;;;;;;;7.92;49.21;101695.72;4956401;27;128936;-64
2024/01/08 01:56:19;;;;;;;;;;;;;;;7.92;49.13;101700.25;4952231;27;129378;-66
2024/01/08 01:58:45;;;;;;;;;;;;;;;7.91;48.78;101701.31;4958305;27;98435;-64
2024/01/08 02:01:12;;;;;;;;;;;;;;;7.88;49.06;101695.31;4948695;27;98393;-64
2024/01/08 02:03:38;;;;;;;;;;;;;;;7.87;49.02;101696.38;4961164;28;98589;-66
2024/01/08 02:06:06;;;;;;;;;;;;;;;7.85;49.28;101698.44;4944697;27;99433;-66
2024/01/08 02:08:32;;;;;;;;;;;;;;;7.84;48.92;101704.03;4967320;27;98939;-68
2024/01/08 02:10:59;;;;;;;;;;;;;;;7.83;49.62;101702.41;4946490;27;99209;-64
2024/01/08 02:13:25;;;;;;;;;;;;;;;7.80;49.16;101714.41;4964593;27;99682;-64
2024/01/08 02:15:50;;;;;;;;;;;;;;;7.79;49.26;101717.31;4949037;27;99435;-66
2024/01/08 02:18:19;;;;;;;;;;;;;;;7.75;49.40;101718.78;4945194;27;108947;-64
2024/01/08 02:20:45;;;;;;;;;;;;;;;7.72;48.86;101714.66;4950029;27;99205;-66
2024/01/08 02:23:11;;;;;;;;;;;;;;;7.71;48.98;101722.94;4947802;27;129407;-67
2024/01/08 02:25:37;;;;;;;;;;;;;;;7.69;49.54;101727.69;4966550;27;99906;-66
2024/01/08 02:28:04;;;;;;;;;;;;;;;7.66;49.39;101714.69;4964554;27;99523;-64
2024/01/08 02:30:30;;;;;;;;;;;;;;;7.66;49.14;101722.75;4943840;27;98266;-64
2024/01/08 02:32:56;;;;;;;;;;;;;;;7.64;49.18;101731.03;4950120;27;97988;-64
2024/01/08 02:35:22;;;;;;;;;;;;;;;7.62;48.86;101733.09;4961099;27;98190;-64
2024/01/08 02:37:48;;;;;;;;;;;;;;;7.60;49.20;101727.97;4966393;28;98216;-64
2024/01/08 02:40:14;;;;;;;;;;;;;;;7.58;49.41;101724.69;4945962;27;98030;-64
2024/01/08 02:42:41;;;;;;;;;;;;;;;7.56;49.10;101731.31;4946864;27;99859;-64
2024/01/08 02:45:08;;;;;;;;;;;;;;;7.55;49.03;101745.75;4963559;27;99497;-64
2024/01/08 02:47:37;;;;;;;;;;;;;;;7.55;49.41;101745.75;4965702;27;97990;-66
2024/01/08 02:50:06;;;;;;;;;;;;;;;7.53;49.17;101755.88;4948193;27;99472;-66
2024/01/08 02:52:33;;;;;;;;;;;;;;;7.52;49.24;101756.91;4963693;27;99706;-67
2024/01/08 02:54:59;;;;;;;;;;;;;;;7.50;48.81;101759.81;4960995;27;98708;-67
2024/01/08 02:57:28;;;;;;;;;;;;;;;7.47;48.90;101757.56;4946668;27;98733;-64
2024/01/08 02:59:54;;;;;;;;;;;;;;;7.47;48.96;101765.63;4960847;27;99427;-64
2024/01/08 03:02:20;;;;;;;;;;;;;;;7.46;49.46;101763.13;4947996;27;98227;-66
2024/01/08 03:04:46;;;;;;;;;;;;;;;7.43;49.23;101769.78;4962522;27;99825;-64
2024/01/08 03:07:17;;;;;;;;;;;;;;;7.42;49.39;101772.66;4960144;27;106750;-64
2024/01/08 03:09:44;;;;;;;;;;;;;;;7.41;48.84;101792.47;4948844;27;98271;-67
2024/01/08 03:12:11;;;;;;;;;;;;;;;7.37;48.56;101784.03;4965581;27;98590;-66
2024/01/08 03:14:37;;;;;;;;;;;;;;;7.38;49.17;101791.03;4963618;27;99564;-63
2024/01/08 03:17:03;;;;;;;;;;;;;;;7.37;48.77;101795.59;4967324;27;98171;-64
2024/01/08 03:19:30;;;;;;;;;;;;;;;7.37;48.74;101805.50;4945428;27;98315;-64
2024/01/08 03:21:56;;;;;;;;;;;;;;;7.35;48.94;101811.09;4943680;27;99890;-64
2024/01/08 03:24:22;;;;;;;;;;;;;;;7.34;49.44;101812.09;4942915;27;99740;-64
2024/01/08 03:26:53;;;;;;;;;;;;;;;7.33;49.01;101821.19;4964081;27;98657;-66
2024/01/08 03:29:18;;;;;;;;;;;;;;;7.32;48.92;101819.56;4944136;27;99346;-66
2024/01/08 03:31:44;;;;;;;;;;;;;;;7.31;48.99;101819.75;4965638;27;127617;-64
2024/01/08 03:34:11;;;;;;;;;;;;;;;7.30;49.17;101815.44;4950664;28;102177;-64
2024/01/08 03:36:37;;;;;;;;;;;;;;;7.30;49.25;101828.84;4977652;27;98020;-66
2024/01/08 03:39:03;;;;;;;;;;;;;;;7.28;48.65;101830.94;4962158;28;128708;-64
2024/01/08 03:41:29;;;;;;;;;;;;;;;7.26;48.92;101825.75;4962368;27;98522;-63
2024/01/08 03:43:55;;;;;;;;;;;;;;;7.25;48.90;101831.34;4960054;28;98051;-64
2024/01/08 03:46:21;;;;;;;;;;;;;;;7.24;49.04;101841.25;4942889;27;97955;-66
2024/01/08 03:48:48;;;;;;;;;;;;;;;7.23;49.23;101841.44;4962183;27;130530;-64
2024/01/08 03:51:14;;;;;;;;;;;;;;;7.21;49.06;101840.84;4949951;27;98497;-67
2024/01/08 03:53:40;;;;;;;;;;;;;;;7.18;49.23;101831.34;4944909;27;130173;-64
2024/01/08 03:56:07;;;;;;;;;;;;;;;7.18;48.99;101844.75;4961599;27;98476;-67
2024/01/08 03:58:33;;;;;;;;;;;;;;;7.17;49.00;101840.44;4943399;27;98090;-64
2024/01/08 04:01:00;;;;;;;;;;;;;;;7.16;48.71;101848.72;4947458;27;97854;-64
2024/01/08 04:03:26;;;;;;;;;;;;;;;7.14;49.14;101840.84;4941385;27;101508;-67
2024/01/08 04:05:52;;;;;;;;;;;;;;;7.13;49.02;101841.91;4956731;27;117883;-66
2024/01/08 04:08:18;;;;;;;;;;;;;;;7.12;49.01;101846.44;4947472;28;126562;-67
2024/01/08 04:10:44;;;;;;;;;;;;;;;7.11;48.98;101855.53;4954204;27;129311;-64
2024/01/08 04:13:10;;;;;;;;;;;;;;;7.11;49.24;101857.38;4960716;28;127895;-64
2024/01/08 04:15:36;;;;;;;;;;;;;;;7.10;48.89;101864.59;4952210;28;98058;-66
2024/01/08 04:18:02;;;;;;;;;;;;;;;7.09;48.95;101859.44;4948083;27;131453;-66
2024/01/08 04:20:28;;;;;;;;;;;;;;;7.07;48.98;101854.31;4962569;28;98498;-67
2024/01/08 04:22:54;;;;;;;;;;;;;;;7.08;49.17;101861.31;4939031;27;127810;-67
2024/01/08 04:25:20;;;;;;;;;;;;;;;7.08;48.67;101868.53;4961050;27;115761;-66
2024/01/08 04:27:46;;;;;;;;;;;;;;;7.08;48.91;101869.34;4956778;27;113682;-67
2024/01/08 04:30:13;;;;;;;;;;;;;;;7.07;49.11;101867.72;4958629;27;98181;-66
2024/01/08 04:32:39;;;;;;;;;;;;;;;7.07;49.06;101870.41;4946900;27;98044;-66
2024/01/08 04:35:05;;;;;;;;;;;;;;;7.07;48.55;101882.94;4942913;27;117003;-66
2024/01/08 04:37:31;;;;;;;;;;;;;;;7.05;49.24;101885.84;4947818;27;99753;-64
2024/01/08 04:39:57;;;;;;;;;;;;;;;7.06;48.51;101892.03;4960398;27;98402;-64
2024/01/08 04:42:23;;;;;;;;;;;;;;;7.04;48.95;101894.94;4957119;27;127607;-64
2024/01/08 04:44:50;;;;;;;;;;;;;;;7.02;48.77;101897.00;4941529;28;98068;-64
2024/01/08 04:47:16;;;;;;;;;;;;;;;7.02;48.85;101899.69;4940980;27;100180;-66
2024/01/08 04:49:42;;;;;;;;;;;;;;;7.02;49.04;101898.84;4959410;27;99321;-64
2024/01/08 04:52:08;;;;;;;;;;;;;;;7.01;49.02;101897.22;4943001;27;130478;-64
2024/01/08 04:54:34;;;;;;;;;;;;;;;7.01;48.95;101902.56;4964761;27;99716;-66
2024/01/08 04:57:00;;;;;;;;;;;;;;;6.99;48.82;101905.44;4944472;27;98217;-66
2024/01/08 04:59:26;;;;;;;;;;;;;;;6.99;48.79;101910.00;4963047;27;98338;-66
2024/01/08 05:01:52;;;;;;;;;;;;;;;6.97;48.86;101910.22;4959002;27;127574;-66
2024/01/08 05:04:20;;;;;;;;;;;;;;;6.97;49.01;101910.22;4963424;27;99942;-63
2024/01/08 05:06:46;;;;;;;;;;;;;;;6.96;48.82;101913.94;4968396;27;98595;-67
2024/01/08 05:09:13;;;;;;;;;;;;;;;6.96;49.28;101921.16;4944481;27;99946;-64
2024/01/08 05:11:40;;;;;;;;;;;;;;;6.95;48.55;101924.84;4946646;27;98125;-64
2024/01/08 05:14:05;;;;;;;;;;;;;;;6.93;48.74;101925.06;4941639;27;98087;-66
2024/01/08 05:16:32;;;;;;;;;;;;;;;6.93;48.86;101932.28;4946771;28;98341;-66
2024/01/08 05:18:58;;;;;;;;;;;;;;;6.92;48.97;101939.50;4960873;27;99725;-66
2024/01/08 05:21:24;;;;;;;;;;;;;;;6.91;48.47;101939.69;4959253;27;98023;-66
2024/01/08 05:23:50;;;;;;;;;;;;;;;6.89;48.90;101939.91;4959504;27;98004;-66
2024/01/08 05:26:16;;;;;;;;;;;;;;;6.88;48.57;101935.59;4942094;27;98458;-63
2024/01/08 05:28:42;;;;;;;;;;;;;;;6.86;48.58;101943.00;4961574;28;103546;-65
2024/01/08 05:31:08;;;;;;;;;;;;;;;6.83;48.63;101946.91;4940848;27;99071;-68
2024/01/08 05:33:34;;;;;;;;;;;;;;;6.80;48.95;101947.34;4943178;27;97868;-63
2024/01/08 05:36:01;;;;;;;;;;;;;;;6.77;48.49;101947.75;4972724;27;98424;-63
2024/01/08 05:38:27;;;;;;;;;;;;;;;6.74;48.84;101953.53;4949771;27;97920;-65
2024/01/08 05:40:55;;;;;;;;;;;;;;;6.71;48.58;101953.94;4952593;27;99265;-63
2024/01/08 05:43:22;;;;;;;;;;;;;;;6.68;48.78;101954.34;4948828;27;99787;-63
2024/01/08 05:45:49;;;;;;;;;;;;;;;6.66;48.78;101956.41;4963358;27;98366;-64
2024/01/08 05:48:15;;;;;;;;;;;;;;;6.66;48.81;101971.66;4965203;27;98201;-66
2024/01/08 05:50:41;;;;;;;;;;;;;;;6.64;48.76;101966.50;4942332;27;98069;-66
2024/01/08 05:53:07;;;;;;;;;;;;;;;6.63;48.41;101979.06;4950263;27;109447;-65
2024/01/08 05:55:33;;;;;;;;;;;;;;;6.61;48.80;101974.97;4935690;27;98905;-66
2024/01/08 05:57:59;;;;;;;;;;;;;;;6.58;48.79;101976.19;4946877;27;113111;-64
2024/01/08 06:00:25;;;;;;;;;;;;;;;6.58;48.74;101986.09;4947607;27;98263;-64
2024/01/08 06:02:51;;;;;;;;;;;;;;;6.57;48.72;101981.75;4953430;28;98094;-66
2024/01/08 06:05:17;;;;;;;;;;;;;;;6.54;48.59;101982.97;4961475;27;127417;-63
2024/01/08 06:07:43;;;;;;;;;;;;;;;6.53;49.22;101983.19;4949374;28;98004;-66
2024/01/08 06:10:09;;;;;;;;;;;;;;;6.53;48.87;101986.69;4976929;27;97911;-64
2024/01/08 06:12:35;;;;;;;;;;;;;;;6.51;48.70;101986.06;4963287;27;108448;-63
2024/01/08 06:15:01;;;;;;;;;;;;;;;6.49;48.71;101998.84;4950329;28;99600;-64
2024/01/08 06:17:28;;;;;;;;;;;;;;;6.49;48.87;101993.50;4951170;27;100741;-63
2024/01/08 06:19:54;;;;;;;;;;;;;;;6.48;48.57;101993.69;4943065;27;98264;-64
2024/01/08 06:22:20;;;;;;;;;;;;;;;6.48;48.61;101997.19;4949281;27;98348;-63
2024/01/08 06:24:46;;;;;;;;;;;;;;;6.45;48.65;102000.28;4953868;27;98119;-63
2024/01/08 06:27:12;;;;;;;;;;;;;;;6.44;48.45;102003.16;4950119;27;97941;-65
2024/01/08 06:29:38;;;;;;;;;;;;;;;6.43;48.70;102005.00;4966740;27;126550;-65
2024/01/08 06:32:04;;;;;;;;;;;;;;;6.43;48.77;101996.16;4963072;27;111265;-65
2024/01/08 06:34:30;;;;;;;;;;;;;;;6.42;48.46;101998.00;4959699;28;97970;-63
2024/01/08 06:36:56;;;;;;;;;;;;;;;6.40;48.56;102008.09;4959915;27;98311;-63
2024/01/08 06:39:22;;;;;;;;;;;;;;;6.41;48.63;102011.63;4941667;27;99076;-63
2024/01/08 06:41:48;;;;;;;;;;;;;;;6.39;48.78;102019.84;4953709;27;98346;-65
2024/01/08 06:44:14;;;;;;;;;;;;;;;6.39;48.56;102019.84;4943565;27;103594;-65
2024/01/08 06:46:40;;;;;;;;;;;;;;;6.38;48.61;102012.84;4974950;27;128673;-65
2024/01/08 06:49:06;;;;;;;;;;;;;;;6.38;48.59;102026.22;4955984;27;101381;-63
2024/01/08 06:51:40;;;;;;;;;;;;;;;6.37;48.42;102025.41;4938208;27;98276;-63
2024/01/08 06:54:07;;;;;;;;;;;;;;;6.36;48.54;102025.59;4977569;27;99222;-63
2024/01/08 06:56:33;;;;;;;;;;;;;;;6.36;48.60;102031.75;4942197;27;98263;-63
2024/01/08 06:59:03;;;;;;;;;;;;;;;6.36;48.29;102036.31;4956026;28;98409;-65
2024/01/08 07:01:30;;;;;;;;;;;;;;;6.34;48.82;102036.50;4956072;27;98186;-63
2024/01/08 07:03:57;;;;;;;;;;;;;;;6.34;48.70;102041.88;4950417;27;98243;-63
2024/01/08 07:06:23;;;;;;;;;;;;;;;6.34;48.62;102041.06;4956525;27;99357;-63
2024/01/08 07:08:49;;;;;;;;;;;;;;;6.34;48.48;102046.41;4934751;27;99746;-63
2024/01/08 07:11:25;;;;;;;;;;;;;;;6.34;48.57;102049.09;4943945;27;98122;-63
2024/01/08 07:13:51;;;;;;;;;;;;;;;6.35;48.40;102050.72;4958847;27;99986;-63
2024/01/08 07:16:17;;;;;;;;;;;;;;;6.36;48.54;102055.88;4941897;28;98185;-65
2024/01/08 07:18:44;;;;;;;;;;;;;;;6.37;48.83;102059.41;4955633;27;99276;-63
2024/01/08 07:21:11;;;;;;;;;;;;;;;6.38;48.66;102058.38;4940968;28;98387;-65
2024/01/08 07:23:37;;;;;;;;;;;;;;;6.39;48.66;102065.38;4941720;27;98479;-65
2024/01/08 07:26:03;;;;;;;;;;;;;;;6.42;48.45;102061.47;4949689;28;104712;-66
2024/01/08 07:28:29;;;;;;;;;;;;;;;6.42;48.34;102069.50;4969508;27;98121;-65
2024/01/08 07:30:55;;;;;;;;;;;;;;;6.44;48.76;102072.81;4944522;27;99807;-66
2024/01/08 07:33:22;;;;;;;;;;;;;;;6.45;48.57;102075.28;4941161;28;127962;-63
2024/01/08 07:35:48;;;;;;;;;;;;;;;6.47;48.62;102078.59;4957367;27;99627;-65
2024/01/08 07:38:14;;;;;;;;;;;;;;;6.49;48.45;102083.75;4943373;27;120345;-65
2024/01/08 07:40:40;;;;;;;;;;;;;;;6.51;48.44;102093.22;4961529;27;99370;-63
2024/01/08 07:43:06;;;;;;;;;;;;;;;6.56;48.34;102096.16;4958745;27;99551;-65
2024/01/08 07:45:32;;;;;;;;;;;;;;;6.65;48.69;102096.78;4957578;27;127531;-65
2024/01/08 07:47:58;;;;;;;;;;;;;;;6.73;48.51;102093.94;4942836;28;99160;-65
2024/01/08 07:50:24;;;;;;;;;;;;;;;6.81;48.87;102096.41;4940077;27;98351;-63
2024/01/08 07:52:51;;;;;;;;;;;;;;;6.88;48.80;102107.16;4942806;27;99399;-67
2024/01/08 07:55:17;;;;;;;;;;;;;;;6.94;48.30;102103.66;4943900;27;100177;-63
2024/01/08 07:57:43;;;;;;;;;;;;;;;7.00;48.28;102099.34;4958025;27;99037;-65
2024/01/08 08:00:11;;;;;;;;;;;;;;;7.04;48.49;102105.97;4940561;27;98267;-63
2024/01/08 08:02:38;;;;;;;;;;;;;;;7.08;48.73;102104.50;4963260;27;98283;-65
2024/01/08 08:05:05;;;;;;;;;;;;;;;7.10;48.58;102105.94;4937412;28;98358;-65
2024/01/08 08:07:35;;;;;;;;;;;;;;;7.14;48.57;102109.03;4972957;27;98296;-66
2024/01/08 08:10:01;;;;;;;;;;;;;;;7.16;48.24;102119.59;4973398;27;98425;-67
2024/01/08 08:12:27;;;;;;;;;;;;;;;7.18;48.51;102121.03;4954992;27;123370;-63
2024/01/08 08:14:53;;;;;;;;;;;;;;;7.24;48.76;102124.75;4938210;27;108007;-63
2024/01/08 08:17:19;;;;;;;;;;;;;;;7.28;48.43;102132.19;4955816;27;98129;-65
2024/01/08 08:19:45;;;;;;;;;;;;;;;7.34;48.29;102133.22;4934939;27;118287;-65
2024/01/08 08:22:11;;;;;;;;;;;;;;;7.36;48.35;102137.34;4954823;27;116520;-65
2024/01/08 08:24:41;;;;;;;;;;;;;;;7.42;48.01;102135.69;4941672;27;126773;-65
2024/01/08 08:27:10;;;;;;;;;;;;;;;7.50;48.07;102134.66;4939293;27;99356;-65
2024/01/08 08:29:41;;;;;;;;;;;;;;;7.68;48.37;102142.09;4941647;27;98227;-65
2024/01/08 08:32:08;;;;;;;;;;;;;;;7.82;47.81;102149.09;4938862;27;99583;-63
2024/01/08 08:34:34;;;;;;;;;;;;;;;7.93;48.15;102144.94;4938874;28;115471;-66
2024/01/08 08:37:00;;;;;;;;;;;;;;;8.00;47.76;102153.81;4941967;27;98445;-65
2024/01/08 08:39:26;;;;;;;;;;;;;;;8.03;48.36;102153.41;4941098;27;98212;-65
2024/01/08 08:41:52;;;;;;;;;;;;;;;8.03;47.80;102162.28;4963126;27;98259;-65
2024/01/08 08:44:18;;;;;;;;;;;;;;;8.06;47.77;102161.06;4955863;27;98453;-63
2024/01/08 08:46:44;;;;;;;;;;;;;;;8.32;47.85;102150.22;4938770;27;130401;-65
2024/01/08 08:49:12;;;;;;;;;;;;;;;8.39;47.82;102161.00;4937054;27;98108;-63
2024/01/08 08:51:38;;;;;;;;;;;;;;;8.33;47.49;102168.03;4956410;27;98561;-65
2024/01/08 08:54:06;;;;;;;;;;;;;;;8.51;47.74;102180.78;4939660;27;97972;-63
2024/01/08 08:56:32;;;;;;;;;;;;;;;8.53;47.80;102184.13;4958193;27;99021;-65
2024/01/08 08:58:59;;;;;;;;;;;;;;;8.55;47.59;102183.88;4958627;27;99146;-66
2024/01/08 09:01:25;;;;;;;;;;;;;;;8.62;47.82;102183.88;4940661;28;103957;-63
2024/01/08 09:03:54;;;;;;;;;;;;;;;8.67;47.78;102197.50;4955675;27;99203;-65
2024/01/08 09:06:23;;;;;;;;;;;;;;;8.98;46.88;102194.06;4953353;27;98283;-65
2024/01/08 09:08:49;;;;;;;;;;;;;;;9.54;46.71;102196.78;4943380;27;98116;-65
2024/01/08 09:11:16;;;;;;;;;;;;;;;10.14;46.19;102192.75;4958388;27;99212;-65
2024/01/08 09:13:42;;;;;;;;;;;;;;;10.81;46.12;102191.00;4961069;28;98909;-63
2024/01/08 09:16:12;;;;;;;;;;;;;;;11.46;45.85;102187.59;4955613;27;98091;-65
2024/01/08 09:18:38;;;;;;;;;;;;;;;12.08;45.64;102190.72;4959523;27;98056;-64
2024/01/08 09:21:07;;;;;;;;;;;;;;;12.40;45.54;102180.34;4941986;27;100031;-65
2024/01/08 09:23:33;;;;;;;;;;;;;;;12.65;45.72;102193.56;4976913;27;98282;-66
2024/01/08 09:25:59;;;;;;;;;;;;;;;12.91;45.81;102200.31;4947306;27;99665;-65
2024/01/08 09:28:25;;;;;;;;;;;;;;;13.21;45.90;102202.78;4946687;27;98158;-63
2024/01/08 09:30:52;;;;;;;;;;;;;;;13.52;45.92;102192.53;4939810;27;99798;-65
2024/01/08 09:33:19;;;;;;;;;;;;;;;13.71;46.05;102201.22;4952779;27;98410;-63
2024/01/08 09:35:45;;;;;;;;;;;;;;;13.83;46.18;102201.13;4940436;27;98261;-63
2024/01/08 09:38:11;;;;;;;;;;;;;;;13.99;45.72;102206.56;4958078;27;98707;-63
2024/01/08 09:40:37;;;;;;;;;;;;;;;14.15;46.07;102204.09;4957918;27;98623;-65
2024/01/08 09:43:06;;;;;;;;;;;;;;;14.25;45.88;102196.06;4960860;27;99818;-65
2024/01/08 09:45:32;;;;;;;;;;;;;;;14.61;45.64;102194.66;4973023;27;99873;-63
2024/01/08 09:47:58;;;;;;;;;;;;;;;14.91;45.51;102194.22;4954465;27;99538;-63
2024/01/08 09:50:26;;;;;;;;;;;;;;;14.69;46.14;102202.38;4939929;27;99466;-63
2024/01/08 09:52:55;;;;;;;;;;;;;;;14.42;46.61;102205.00;4957548;27;99358;-63
2024/01/08 09:55:21;;;;;;;;;;;;;;;14.21;46.75;102209.31;4942608;27;98772;-66
2024/01/08 09:57:47;;;;;;;;;;;;;;;14.04;46.71;102208.53;4957817;27;99680;-63
2024/01/08 10:00:14;;;;;;;;;;;;;;;13.88;46.90;102206.66;4943570;27;100031;-65
2024/01/08 10:02:40;;;;;;;;;;;;;;;13.71;46.84;102207.47;4966096;27;98115;-65
2024/01/08 10:05:07;;;;;;;;;;;;;;;13.56;47.31;102215.38;4943337;27;103168;-63
2024/01/08 10:07:36;;;;;;;;;;;;;;;13.39;47.47;102211.78;4947982;27;98496;-65
2024/01/08 10:10:03;;;;;;;;;;;;;;;13.23;47.36;102213.41;4958861;27;99020;-63
2024/01/08 10:12:32;;;;;;;;;;;;;;;13.07;47.27;102223.09;4975789;27;98994;-65
2024/01/08 10:15:03;;;;;;;;;;;;;;;12.91;47.63;102221.16;4989755;27;98856;-63
2024/01/08 10:17:31;;;;;;;;;;;;;;;12.75;47.84;102217.31;4959151;27;98427;-65
2024/01/08 10:20:08;;;;;;;;;;;;;;;12.60;47.94;102217.81;4962692;27;98262;-63
2024/01/08 10:22:34;;;;;;;;;;;;;;;12.44;47.60;102219.38;4961173;27;98152;-63
2024/01/08 10:25:02;;;;;;;;;;;;;;;12.31;47.88;102221.53;4946867;27;98104;-63
2024/01/08 10:27:28;;;;;;;;;;;;;;;12.18;47.71;102218.00;4944879;27;98200;-66
2024/01/08 10:29:54;;;;;;;;;;;;;;;12.07;47.80;102237.75;4946019;27;98300;-65
2024/01/08 10:32:22;;;;;;;;;;;;;;;11.95;47.70;102232.34;4943769;27;124502;-65
2024/01/08 10:34:49;;;;;;;;;;;;;;;11.85;47.78;102221.28;4956532;27;98179;-65
2024/01/08 10:37:15;;;;;;;;;;;;;;;11.74;47.86;102233.66;4939063;27;98000;-65
2024/01/08 10:39:42;;;;;;;;;;;;;;;11.63;48.03;102226.41;4946956;27;108637;-63
2024/01/08 10:42:08;;;;;;;;;;;;;;;11.54;48.04;102220.47;4974477;27;98037;-63
2024/01/08 10:44:34;;;;;;;;;;;;;;;11.47;47.92;102225.16;4962701;27;99613;-63
2024/01/08 10:47:04;;;;;;;;;;;;;;;11.39;47.81;102227.34;4945560;28;98210;-63
2024/01/08 10:49:36;;;;;;;;;;;;;;;11.31;47.91;102231.22;4958829;27;113469;-63
2024/01/08 10:52:16;;;;;;;;;;;;;;;11.24;47.75;102236.72;4973399;27;98618;-65
2024/01/08 10:54:53;;;;;;;;;;;;;;;11.17;47.83;102235.16;4962020;27;98999;-65
2024/01/08 10:57:19;;;;;;;;;;;;;;;11.09;48.02;102227.38;4960931;27;98115;-63
2024/01/08 10:59:45;;;;;;;;;;;;;;;11.03;48.12;102229.09;4939437;27;106465;-63
2024/01/08 11:02:14;;;;;;;;;;;;;;;10.95;47.94;102235.63;4954091;28;108110;-66
2024/01/08 11:04:42;;;;;;;;;;;;;;;10.90;47.81;102230.09;4954028;27;98536;-63
2024/01/08 11:07:13;;;;;;;;;;;;;;;10.85;47.69;102226.44;4939385;27;97899;-63
2024/01/08 11:09:39;;;;;;;;;;;;;;;10.80;47.68;102224.41;4945860;27;98321;-65
2024/01/08 11:12:10;;;;;;;;;;;;;;;10.76;47.86;102232.13;4944900;27;104753;-66
2024/01/08 11:14:36;;;;;;;;;;;;;;;10.72;47.57;102236.31;4954814;27;98604;-65
2024/01/08 11:17:02;;;;;;;;;;;;;;;10.67;48.04;102227.28;4943104;27;110289;-63
2024/01/08 11:19:28;;;;;;;;;;;;;;;10.64;48.02;102236.63;4943949;27;98240;-63
2024/01/08 11:21:57;;;;;;;;;;;;;;;10.61;47.69;102236.25;4960972;27;99079;-66
2024/01/08 11:24:24;;;;;;;;;;;;;;;10.58;47.42;102242.94;4960519;28;98396;-66
2024/01/08 11:26:51;;;;;;;;;;;;;;;10.53;47.71;102238.22;4945385;27;98342;-63
2024/01/08 11:29:18;;;;;;;;;;;;;;;10.52;48.02;102241.13;4939051;28;99821;-63
2024/01/08 11:31:52;;;;;;;;;;;;;;;10.47;47.92;102244.50;4981381;27;99700;-63
2024/01/08 11:34:24;;;;;;;;;;;;;;;10.43;47.43;102235.22;4977583;27;98231;-65
2024/01/08 11:36:50;;;;;;;;;;;;;;;10.38;47.67;102245.84;4973070;27;98004;-65
2024/01/08 11:39:19;;;;;;;;;;;;;;;10.32;47.71;102244.03;4956076;28;127068;-66
2024/01/08 11:41:48;;;;;;;;;;;;;;;10.26;47.97;102243.06;4960527;27;106072;-65
2024/01/08 11:44:14;;;;;;;;;;;;;;;10.23;47.58;102242.66;4960508;28;98313;-63
2024/01/08 11:46:44;;;;;;;;;;;;;;;10.17;47.76;102238.13;4971996;27;98817;-66
2024/01/08 11:49:10;;;;;;;;;;;;;;;10.12;48.08;102246.06;4959002;27;98228;-65
2024/01/08 11:51:40;;;;;;;;;;;;;;;10.07;48.21;102238.66;4958264;27;101715;-65
2024/01/08 11:54:06;;;;;;;;;;;;;;;10.01;47.93;102239.50;4953375;27;98857;-65
2024/01/08 11:56:34;;;;;;;;;;;;;;;9.96;47.79;102236.66;4956114;28;99450;-63
2024/01/08 11:59:00;;;;;;;;;;;;;;;9.92;47.72;102243.53;4939651;27;99090;-63
2024/01/08 12:01:29;;;;;;;;;;;;;;;9.87;48.20;102238.81;4950651;27;125186;-66
2024/01/08 12:04:01;;;;;;;;;;;;;;;9.82;48.23;102239.47;4941982;27;98826;-66
2024/01/08 12:06:27;;;;;;;;;;;;;;;9.78;47.58;102237.41;4961268;27;98292;-65
2024/01/08 12:08:56;;;;;;;;;;;;;;;9.73;48.07;102234.56;4964596;27;99946;-65
2024/01/08 12:11:25;;;;;;;;;;;;;;;9.67;47.40;102230.03;4978703;27;119023;-66
2024/01/08 12:13:54;;;;;;;;;;;;;;;9.64;47.92;102234.00;4942095;27;99105;-67
2024/01/08 12:16:23;;;;;;;;;;;;;;;9.60;47.93;102238.19;4976627;27;105284;-63
2024/01/08 12:18:49;;;;;;;;;;;;;;;9.57;47.98;102241.31;4943928;27;98710;-66
2024/01/08 12:21:15;;;;;;;;;;;;;;;9.52;48.30;102241.97;4957591;27;98182;-65
2024/01/08 12:23:41;;;;;;;;;;;;;;;9.49;47.80;102237.00;4945226;27;98134;-65
2024/01/08 12:26:07;;;;;;;;;;;;;;;9.45;48.08;102237.66;4946027;27;98629;-66
2024/01/08 12:28:34;;;;;;;;;;;;;;;9.41;47.74;102239.97;4942765;28;126869;-63
2024/01/08 12:31:01;;;;;;;;;;;;;;;9.37;47.83;102236.06;4958316;27;98019;-63
2024/01/08 12:33:27;;;;;;;;;;;;;;;9.34;48.04;102249.94;4975311;27;99443;-67
2024/01/08 12:35:54;;;;;;;;;;;;;;;9.31;48.50;102247.66;4956975;27;102414;-63
2024/01/08 12:38:20;;;;;;;;;;;;;;;9.29;47.70;102249.75;4950678;27;98746;-63
2024/01/08 12:40:49;;;;;;;;;;;;;;;9.26;48.39;102251.00;4938995;27;98346;-66